Time;durP1;ratioP1;P1;durP2;ratioP2;P2;SDS_P1;SDS_P2;PMS_P1;PMS_P2;Temp;Humidity;BMP_temperature;BMP_pressure;BME280_temperature;BME280_humidity;BME280_pressure;Samples;Min_cycle;Max_cycle;Signal;HPM_P1;HPM_P2
2024/01/05 00:02:01;;;;;;;380.38;165.40;;;3.30;99.90;;;;;;5095456;28;20055;-54
2024/01/05 00:04:27;;;;;;;395.00;171.93;;;3.30;99.90;;;;;;5096986;28;20093;-54
2024/01/05 00:06:53;;;;;;;339.63;147.20;;;3.10;99.90;;;;;;5096591;28;20081;-54
2024/01/05 00:09:18;;;;;;;346.50;146.57;;;3.00;99.90;;;;;;5094814;28;20040;-54
2024/01/05 00:11:45;;;;;;;273.95;122.20;;;2.90;99.90;;;;;;5096601;28;20035;-54
2024/01/05 00:14:10;;;;;;;258.92;118.75;;;3.00;99.90;;;;;;5096613;28;20051;-54
2024/01/05 00:16:37;;;;;;;254.02;114.60;;;3.00;99.90;;;;;;5096152;28;20020;-55
2024/01/05 00:19:03;;;;;;;248.00;113.20;;;2.90;99.90;;;;;;5096502;28;20092;-54
2024/01/05 00:21:28;;;;;;;274.02;119.72;;;2.90;99.90;;;;;;5096506;28;20095;-54
2024/01/05 00:23:56;;;;;;;263.60;112.85;;;2.80;99.90;;;;;;5096028;28;20034;-54
2024/01/05 00:26:22;;;;;;;287.23;117.43;;;2.70;99.90;;;;;;5096500;28;20424;-54
2024/01/05 00:28:50;;;;;;;359.23;141.38;;;2.80;99.90;;;;;;5094126;28;20064;-54
2024/01/05 00:31:16;;;;;;;320.52;133.57;;;2.80;99.90;;;;;;5096109;28;20081;-54
2024/01/05 00:33:43;;;;;;;317.98;138.27;;;2.90;99.90;;;;;;5096262;28;20449;-54
2024/01/05 00:36:10;;;;;;;336.85;144.15;;;2.90;99.90;;;;;;5096247;28;20053;-54
2024/01/05 00:38:37;;;;;;;315.48;138.93;;;3.00;99.90;;;;;;5095677;28;20398;-54
2024/01/05 00:41:04;;;;;;;330.73;139.80;;;3.00;99.90;;;;;;5096103;28;20016;-54
2024/01/05 00:43:30;;;;;;;257.80;115.85;;;3.00;99.90;;;;;;5078231;28;20138;-54
2024/01/05 00:45:57;;;;;;;238.05;107.78;;;3.00;99.90;;;;;;5095828;28;20012;-54
2024/01/05 00:48:23;;;;;;;239.70;111.07;;;3.00;99.90;;;;;;5095934;28;20049;-54
2024/01/05 00:50:49;;;;;;;229.43;102.78;;;2.90;99.90;;;;;;5095984;28;20030;-54
2024/01/05 00:53:15;;;;;;;245.82;110.82;;;2.80;99.90;;;;;;5095599;28;20024;-54
2024/01/05 00:55:41;;;;;;;274.15;121.03;;;2.80;99.90;;;;;;5096068;28;20069;-54
2024/01/05 00:58:08;;;;;;;247.60;111.15;;;2.60;99.90;;;;;;5095783;28;20055;-54
2024/01/05 01:00:34;;;;;;;273.38;124.10;;;2.50;99.90;;;;;;5095616;28;20111;-54
2024/01/05 01:03:00;;;;;;;259.02;116.22;;;2.50;99.90;;;;;;5077489;28;20059;-54
2024/01/05 01:05:26;;;;;;;252.65;115.57;;;2.50;99.90;;;;;;5095901;28;20512;-54
2024/01/05 01:07:52;;;;;;;232.13;109.70;;;2.50;99.90;;;;;;5093987;28;20065;-54
2024/01/05 01:10:18;;;;;;;214.52;100.82;;;2.40;99.90;;;;;;5077451;28;20067;-54
2024/01/05 01:12:44;;;;;;;250.95;107.90;;;2.40;99.90;;;;;;5095792;28;20032;-54
2024/01/05 01:15:10;;;;;;;227.25;99.75;;;2.20;99.90;;;;;;5095477;28;20024;-54
2024/01/05 01:17:36;;;;;;;214.43;95.20;;;2.00;99.90;;;;;;5095679;28;20031;-54
2024/01/05 01:20:03;;;;;;;238.07;102.35;;;2.20;99.90;;;;;;5095192;28;20092;-54
2024/01/05 01:22:28;;;;;;;266.73;114.22;;;2.20;99.90;;;;;;5095410;28;20020;-54
2024/01/05 01:24:54;;;;;;;265.67;114.63;;;2.30;99.90;;;;;;5095378;28;20035;-54
2024/01/05 01:27:20;;;;;;;233.43;102.55;;;2.50;99.90;;;;;;5095201;28;20054;-54
2024/01/05 01:29:47;;;;;;;246.57;107.15;;;2.50;99.90;;;;;;5094154;28;20024;-54
2024/01/05 01:32:13;;;;;;;227.32;99.15;;;2.60;99.90;;;;;;5095625;28;20028;-54
2024/01/05 01:34:39;;;;;;;228.98;103.25;;;2.60;99.90;;;;;;5095488;28;20029;-54
2024/01/05 01:37:05;;;;;;;235.85;100.60;;;2.60;99.90;;;;;;5095154;28;20051;-54
2024/01/05 01:39:32;;;;;;;258.20;104.53;;;2.50;99.90;;;;;;5095425;28;20032;-54
2024/01/05 01:41:59;;;;;;;181.60;82.03;;;2.40;99.90;;;;;;5098415;28;20069;-54
2024/01/05 01:44:25;;;;;;;190.45;83.63;;;2.10;99.90;;;;;;5099499;28;20023;-54
2024/01/05 01:46:55;;;;;;;195.13;86.57;;;2.20;99.90;;;;;;5099220;28;20035;-54
2024/01/05 01:49:22;;;;;;;204.70;90.95;;;2.20;99.90;;;;;;5064730;28;20039;-54
2024/01/05 01:51:49;;;;;;;199.30;86.95;;;2.20;99.90;;;;;;5099277;28;20039;-54
2024/01/05 01:54:16;;;;;;;198.40;91.07;;;2.20;99.90;;;;;;5098046;28;20378;-54
2024/01/05 01:56:44;;;;;;;231.75;103.22;;;2.40;99.90;;;;;;5099312;28;20550;-54
2024/01/05 01:59:12;;;;;;;243.98;110.68;;;2.40;99.90;;;;;;5098928;28;20115;-54
2024/01/05 02:01:39;;;;;;;218.05;97.68;;;2.50;99.90;;;;;;5099298;28;20024;-54
2024/01/05 02:04:07;;;;;;;206.43;95.40;;;2.50;99.90;;;;;;5099062;28;20028;-54
2024/01/05 02:06:33;;;;;;;200.40;88.10;;;2.50;99.90;;;;;;5098722;28;20115;-54
2024/01/05 02:08:59;;;;;;;202.13;91.25;;;2.50;99.90;;;;;;5080582;28;20063;-54
2024/01/05 02:11:25;;;;;;;181.98;83.80;;;2.40;99.90;;;;;;5097606;28;20084;-54
2024/01/05 02:13:51;;;;;;;186.00;83.63;;;2.30;99.90;;;;;;5099043;28;20082;-54
2024/01/05 02:16:16;;;;;;;188.68;82.53;;;2.30;99.90;;;;;;5098920;28;20020;-54
2024/01/05 02:18:50;;;;;;;170.75;80.15;;;2.30;99.90;;;;;;5097202;28;20048;-54
2024/01/05 02:21:21;;;;;;;172.00;77.45;;;2.30;99.90;;;;;;5098929;28;20016;-54
2024/01/05 02:23:47;;;;;;;164.52;75.97;;;2.30;99.90;;;;;;5099065;28;20031;-54
2024/01/05 02:26:12;;;;;;;160.40;76.53;;;2.30;99.90;;;;;;5098760;28;20020;-54
2024/01/05 02:28:38;;;;;;;156.45;73.65;;;2.20;99.90;;;;;;5096873;28;20350;-54
2024/01/05 02:31:04;;;;;;;163.52;73.90;;;2.30;99.90;;;;;;5098616;28;20032;-54
2024/01/05 02:33:30;;;;;;;151.27;68.60;;;2.30;99.90;;;;;;5098322;28;20024;-54
2024/01/05 02:35:56;;;;;;;154.95;73.55;;;2.20;99.90;;;;;;5094878;28;20035;-54
2024/01/05 02:38:22;;;;;;;162.73;72.72;;;2.10;99.90;;;;;;5097890;28;20036;-54
2024/01/05 02:40:48;;;;;;;147.20;66.95;;;2.20;99.90;;;;;;5098179;28;20548;-54
2024/01/05 02:43:13;;;;;;;147.73;69.82;;;2.20;99.90;;;;;;5098292;28;20069;-54
2024/01/05 02:45:41;;;;;;;153.43;69.95;;;2.10;99.90;;;;;;5098284;28;20020;-54
2024/01/05 02:48:07;;;;;;;138.07;62.05;;;2.10;99.90;;;;;;5098033;28;20051;-54
2024/01/05 02:50:33;;;;;;;146.18;64.45;;;2.10;99.90;;;;;;5096350;28;20028;-54
2024/01/05 02:52:59;;;;;;;132.45;62.53;;;1.90;99.90;;;;;;5097106;28;20047;-54
2024/01/05 02:55:25;;;;;;;126.63;58.88;;;1.80;99.90;;;;;;5098296;28;20027;-54
2024/01/05 02:57:50;;;;;;;131.15;63.58;;;1.70;99.90;;;;;;5097675;28;20448;-54
2024/01/05 03:00:16;;;;;;;135.70;60.80;;;1.50;99.90;;;;;;5098069;28;20031;-54
2024/01/05 03:02:42;;;;;;;138.43;66.35;;;1.40;99.90;;;;;;5098391;28;20096;-54
2024/01/05 03:05:08;;;;;;;134.43;58.90;;;1.30;99.90;;;;;;5097878;28;20081;-54
2024/01/05 03:07:34;;;;;;;122.25;59.97;;;1.40;99.90;;;;;;5097528;28;20024;-54
2024/01/05 03:10:00;;;;;;;138.57;64.22;;;1.50;99.90;;;;;;5096410;28;20043;-54
2024/01/05 03:12:27;;;;;;;134.02;59.50;;;1.40;99.90;;;;;;5097674;28;20102;-54
2024/01/05 03:14:52;;;;;;;127.97;61.58;;;1.40;99.90;;;;;;5097547;28;20059;-54
2024/01/05 03:17:18;;;;;;;121.22;56.72;;;1.30;99.90;;;;;;5097548;28;20044;-54
2024/01/05 03:19:45;;;;;;;129.75;59.35;;;1.30;99.90;;;;;;5097681;28;20377;-54
2024/01/05 03:22:11;;;;;;;137.32;61.58;;;1.40;99.90;;;;;;5096035;28;20040;-55
2024/01/05 03:24:37;;;;;;;122.22;57.50;;;1.50;99.90;;;;;;5097553;28;20016;-54
2024/01/05 03:27:04;;;;;;;114.18;53.05;;;1.60;99.90;;;;;;5096294;28;20043;-54
2024/01/05 03:29:30;;;;;;;124.50;54.05;;;1.60;99.90;;;;;;5097303;28;20022;-54
2024/01/05 03:31:56;;;;;;;123.20;56.20;;;1.70;99.90;;;;;;5097126;28;20099;-54
2024/01/05 03:34:22;;;;;;;128.45;59.20;;;1.70;99.90;;;;;;5082208;28;20040;-54
2024/01/05 03:36:47;;;;;;;109.50;52.00;;;1.70;99.90;;;;;;5097105;28;20016;-54
2024/01/05 03:39:13;;;;;;;107.07;49.88;;;1.50;99.90;;;;;;5097270;28;20430;-54
2024/01/05 03:41:39;;;;;;;106.30;49.17;;;1.30;99.90;;;;;;5097458;28;20092;-54
2024/01/05 03:44:05;;;;;;;114.43;53.55;;;1.40;99.90;;;;;;5097045;28;20581;-54
2024/01/05 03:46:31;;;;;;;124.20;53.80;;;1.50;99.90;;;;;;5096962;28;20051;-54
2024/01/05 03:48:57;;;;;;;126.20;56.15;;;1.50;99.90;;;;;;5096420;28;20167;-54
2024/01/05 03:51:22;;;;;;;113.82;52.78;;;1.60;99.90;;;;;;5096819;28;20107;-54
2024/01/05 03:53:48;;;;;;;107.72;50.30;;;1.50;99.90;;;;;;5097054;28;20059;-54
2024/01/05 03:56:16;;;;;;;117.32;51.28;;;1.40;99.90;;;;;;5097031;28;20017;-54
2024/01/05 03:58:43;;;;;;;101.20;46.45;;;1.40;99.90;;;;;;5095101;28;20040;-54
2024/01/05 04:01:09;;;;;;;116.15;51.83;;;1.50;99.90;;;;;;5095520;28;20028;-54
2024/01/05 04:03:35;;;;;;;110.10;51.45;;;1.50;99.90;;;;;;5096822;28;20024;-54
2024/01/05 04:06:00;;;;;;;108.25;50.00;;;1.40;99.90;;;;;;5096547;28;20043;-54
2024/01/05 04:08:26;;;;;;;108.00;52.78;;;1.30;99.90;;;;;;5096337;28;20035;-55
2024/01/05 04:10:54;;;;;;;96.47;46.15;;;1.20;99.90;;;;;;5095509;28;20065;-54
2024/01/05 04:13:19;;;;;;;103.85;46.05;;;1.20;99.90;;;;;;5096499;28;20492;-54
2024/01/05 04:15:45;;;;;;;96.70;43.95;;;1.10;99.90;;;;;;5095377;28;20024;-54
2024/01/05 04:18:11;;;;;;;99.95;45.50;;;1.20;99.90;;;;;;5095063;28;20044;-54
2024/01/05 04:20:37;;;;;;;92.20;44.08;;;1.20;99.90;;;;;;5096262;28;20035;-54
2024/01/05 04:23:03;;;;;;;92.57;44.33;;;1.00;99.90;;;;;;5096409;28;20043;-54
2024/01/05 04:25:30;;;;;;;98.72;45.80;;;1.00;99.90;;;;;;5096498;28;20034;-54
2024/01/05 04:27:57;;;;;;;95.00;42.20;;;0.90;99.90;;;;;;5096050;28;20032;-54
2024/01/05 04:30:24;;;;;;;94.50;46.05;;;0.80;99.90;;;;;;5096340;28;20027;-54
2024/01/05 04:32:50;;;;;;;91.88;43.55;;;0.80;99.90;;;;;;5078226;28;20028;-54
2024/01/05 04:35:15;;;;;;;96.05;44.00;;;0.80;99.90;;;;;;5095816;28;20546;-54
2024/01/05 04:37:41;;;;;;;99.55;44.55;;;0.70;99.90;;;;;;5094801;28;20458;-54
2024/01/05 04:40:10;;;;;;;95.70;44.08;;;0.80;99.90;;;;;;5096156;28;20028;-54
2024/01/05 04:42:36;;;;;;;94.10;42.65;;;0.70;99.90;;;;;;5095838;28;20377;-54
2024/01/05 04:45:03;;;;;;;99.15;42.72;;;0.60;99.90;;;;;;5096225;28;20035;-54
2024/01/05 04:47:28;;;;;;;93.35;43.67;;;0.60;99.90;;;;;;5094537;28;20035;-54
2024/01/05 04:49:54;;;;;;;92.57;44.45;;;0.50;99.90;;;;;;5095891;28;20028;-54
2024/01/05 04:52:20;;;;;;;90.10;41.15;;;0.50;99.90;;;;;;5096005;28;20028;-54
2024/01/05 04:54:46;;;;;;;91.05;44.50;;;0.60;99.90;;;;;;5094662;28;20032;-54
2024/01/05 04:57:12;;;;;;;86.97;41.08;;;0.60;99.90;;;;;;5095314;28;20167;-54
2024/01/05 04:59:38;;;;;;;95.75;40.95;;;0.60;99.90;;;;;;5095574;28;20059;-54
2024/01/05 05:02:04;;;;;;;93.82;40.17;;;0.60;99.90;;;;;;5095894;28;20028;-54
2024/01/05 05:04:29;;;;;;;85.47;39.33;;;0.50;99.90;;;;;;5095492;28;20023;-54
2024/01/05 05:06:55;;;;;;;90.50;41.97;;;0.40;99.90;;;;;;5095674;28;20031;-54
2024/01/05 05:09:21;;;;;;;88.25;43.17;;;0.50;99.90;;;;;;5077219;28;20036;-54
2024/01/05 05:11:47;;;;;;;110.20;43.95;;;0.50;99.90;;;;;;5095262;28;20110;-54
2024/01/05 05:14:13;;;;;;;123.10;53.70;;;0.40;99.90;;;;;;5095621;28;20024;-54
2024/01/05 05:16:40;;;;;;;96.90;43.33;;;0.60;99.90;;;;;;5094933;28;20035;-54
2024/01/05 05:19:06;;;;;;;109.32;49.15;;;0.40;99.90;;;;;;5095365;28;20028;-54
2024/01/05 05:21:32;;;;;;;111.25;52.65;;;0.30;99.90;;;;;;5095354;28;20416;-55
2024/01/05 05:23:59;;;;;;;108.95;52.70;;;0.30;99.90;;;;;;5095703;28;20461;-54
2024/01/05 05:26:25;;;;;;;102.07;44.17;;;0.50;99.90;;;;;;5094120;28;20543;-54
2024/01/05 05:28:51;;;;;;;93.05;41.75;;;0.50;99.90;;;;;;5095256;28;20040;-54
2024/01/05 05:31:18;;;;;;;89.90;43.42;;;0.50;99.90;;;;;;5095809;28;20031;-54
2024/01/05 05:33:44;;;;;;;99.93;41.60;;;0.60;99.90;;;;;;5095337;28;20557;-54
2024/01/05 05:36:10;;;;;;;92.88;44.40;;;0.70;99.90;;;;;;5095207;28;20059;-54
2024/01/05 05:38:36;;;;;;;122.43;50.72;;;0.70;99.90;;;;;;5095898;28;20466;-54
2024/01/05 05:41:02;;;;;;;98.72;48.03;;;0.70;99.90;;;;;;5093589;28;20040;-54
2024/01/05 05:43:28;;;;;;;101.53;51.25;;;0.70;99.90;;;;;;5095509;28;20024;-54
2024/01/05 05:45:55;;;;;;;127.53;53.45;;;0.90;99.90;;;;;;5095425;28;20515;-54
2024/01/05 05:48:22;;;;;;;123.28;46.70;;;0.90;99.90;;;;;;5094946;28;20040;-54
2024/01/05 05:50:48;;;;;;;96.43;43.78;;;0.90;99.90;;;;;;5095175;28;20466;-54
2024/01/05 05:53:15;;;;;;;132.80;52.20;;;0.80;99.90;;;;;;5093941;28;20107;-54
2024/01/05 05:55:41;;;;;;;377.58;142.55;;;0.70;99.90;;;;;;5095030;28;20450;-54
2024/01/05 05:58:08;;;;;;;227.88;92.95;;;0.70;99.90;;;;;;5095104;28;20052;-54
2024/01/05 06:00:35;;;;;;;176.13;68.43;;;0.70;99.90;;;;;;5095253;28;20496;-54
2024/01/05 06:03:01;;;;;;;139.77;57.55;;;0.80;99.90;;;;;;5095107;28;20020;-54
2024/01/05 06:05:27;;;;;;;138.48;55.63;;;0.70;99.90;;;;;;5076698;28;20039;-54
2024/01/05 06:07:53;;;;;;;135.43;58.95;;;0.70;99.90;;;;;;5076324;28;20538;-54
2024/01/05 06:10:20;;;;;;;161.73;66.85;;;0.60;99.90;;;;;;5094757;28;20025;-54
2024/01/05 06:12:46;;;;;;;152.77;62.65;;;0.60;99.90;;;;;;5093558;28;20035;-54
2024/01/05 06:15:12;;;;;;;147.73;62.28;;;0.60;99.90;;;;;;5095097;28;20020;-54
2024/01/05 06:17:38;;;;;;;151.23;63.95;;;0.60;99.90;;;;;;5094319;28;20070;-54
2024/01/05 06:20:04;;;;;;;159.43;70.57;;;0.60;99.90;;;;;;5090050;28;20028;-54
2024/01/05 06:22:30;;;;;;;159.57;68.38;;;0.70;99.90;;;;;;5089867;28;20059;-54
2024/01/05 06:24:56;;;;;;;120.97;55.75;;;0.70;99.90;;;;;;5093099;28;20024;-54
2024/01/05 06:27:22;;;;;;;100.07;45.65;;;0.60;99.90;;;;;;5093712;28;20449;-54
2024/01/05 06:29:48;;;;;;;84.65;42.10;;;0.60;99.90;;;;;;5098372;28;20053;-54
2024/01/05 06:32:13;;;;;;;82.15;40.92;;;0.70;99.90;;;;;;5098590;28;20032;-54
2024/01/05 06:34:39;;;;;;;112.22;52.08;;;0.70;99.90;;;;;;5098056;28;20103;-54
2024/01/05 06:37:05;;;;;;;97.60;43.70;;;0.80;99.90;;;;;;5098245;28;20079;-54
2024/01/05 06:39:31;;;;;;;132.75;55.28;;;1.00;99.90;;;;;;5098477;28;20028;-54
2024/01/05 06:41:57;;;;;;;164.05;68.47;;;1.00;99.90;;;;;;5098096;28;20039;-54
2024/01/05 06:44:23;;;;;;;156.90;65.57;;;1.10;99.90;;;;;;5097760;28;20096;-54
2024/01/05 06:46:50;;;;;;;176.82;76.85;;;1.10;99.90;;;;;;5098539;28;20645;-54
2024/01/05 06:49:16;;;;;;;127.68;53.38;;;1.10;99.90;;;;;;5097777;28;20044;-54
2024/01/05 06:51:42;;;;;;;142.70;60.65;;;1.10;99.90;;;;;;5094276;28;20567;-54
2024/01/05 06:54:08;;;;;;;118.82;50.60;;;1.10;99.90;;;;;;5096623;28;20039;-54
2024/01/05 06:56:34;;;;;;;123.90;48.75;;;1.00;99.90;;;;;;5096132;28;20432;-54
2024/01/05 06:59:04;;;;;;;130.98;49.22;;;1.10;99.90;;;;;;5097655;28;20039;-54
2024/01/05 07:01:33;;;;;;;154.70;65.57;;;1.10;99.90;;;;;;5093713;28;20115;-54
2024/01/05 07:03:59;;;;;;;155.38;63.50;;;1.20;99.90;;;;;;5077440;28;20020;-54
2024/01/05 07:06:25;;;;;;;147.63;65.25;;;1.30;99.90;;;;;;5092529;28;20024;-54
2024/01/05 07:08:51;;;;;;;145.65;57.53;;;1.40;99.90;;;;;;5097342;28;20051;-54
2024/01/05 07:11:24;;;;;;;160.68;67.07;;;1.50;99.90;;;;;;5097440;28;20028;-54
2024/01/05 07:13:51;;;;;;;206.30;91.70;;;1.50;99.90;;;;;;5089266;28;20122;-54
2024/01/05 07:16:17;;;;;;;200.18;91.13;;;1.50;99.90;;;;;;5088476;28;20435;-54
2024/01/05 07:18:43;;;;;;;187.65;77.22;;;1.70;99.90;;;;;;5076961;28;20032;-54
2024/01/05 07:21:09;;;;;;;154.88;65.97;;;1.70;99.90;;;;;;5089919;28;20024;-55
2024/01/05 07:23:36;;;;;;;178.30;74.60;;;1.70;99.90;;;;;;5096134;28;20032;-54
2024/01/05 07:26:02;;;;;;;168.45;76.93;;;1.80;99.90;;;;;;5096630;28;20031;-55
2024/01/05 07:28:28;;;;;;;142.38;63.88;;;1.90;99.90;;;;;;5096463;28;20024;-55
2024/01/05 07:30:54;;;;;;;140.88;56.58;;;2.10;99.90;;;;;;5097420;28;20492;-55
2024/01/05 07:33:19;;;;;;;146.23;64.60;;;2.00;99.90;;;;;;5097223;28;20020;-55
2024/01/05 07:35:45;;;;;;;140.27;65.70;;;2.00;99.90;;;;;;5097271;28;20064;-55
2024/01/05 07:38:11;;;;;;;161.48;72.15;;;2.00;99.90;;;;;;5096752;28;20032;-55
2024/01/05 07:40:37;;;;;;;191.13;76.40;;;2.30;99.90;;;;;;5097029;28;20060;-53
2024/01/05 07:43:03;;;;;;;153.05;64.43;;;2.30;99.90;;;;;;5097085;28;20035;-52
2024/01/05 07:45:29;;;;;;;161.63;65.95;;;2.30;99.90;;;;;;5097040;28;20028;-53
2024/01/05 07:47:57;;;;;;;202.27;80.00;;;2.40;99.90;;;;;;5096135;28;20048;-53
2024/01/05 07:50:24;;;;;;;158.05;67.13;;;2.50;99.90;;;;;;5096049;28;20111;-53
2024/01/05 07:52:51;;;;;;;149.27;64.88;;;2.60;99.90;;;;;;5095964;28;20028;-53
2024/01/05 07:55:16;;;;;;;155.55;66.10;;;2.60;99.90;;;;;;5096822;28;20606;-53
2024/01/05 07:57:43;;;;;;;174.40;72.72;;;2.70;99.90;;;;;;5096915;28;20084;-53
2024/01/05 08:00:10;;;;;;;201.13;83.90;;;3.00;99.90;;;;;;5094690;28;20024;-53
2024/01/05 08:02:36;;;;;;;192.95;80.38;;;3.00;99.90;;;;;;5093580;28;20028;-53
2024/01/05 08:05:02;;;;;;;238.55;95.97;;;3.20;99.90;;;;;;5096812;28;20024;-53
2024/01/05 08:07:28;;;;;;;173.75;68.05;;;3.40;99.90;;;;;;5096545;28;20027;-53
2024/01/05 08:09:54;;;;;;;135.38;54.08;;;3.50;99.90;;;;;;5095476;28;20036;-53
2024/01/05 08:12:20;;;;;;;126.68;51.85;;;3.50;99.90;;;;;;5097217;28;20024;-53
2024/01/05 08:14:46;;;;;;;121.18;55.15;;;3.50;99.90;;;;;;5094817;28;20419;-53
2024/01/05 08:17:12;;;;;;;121.20;54.25;;;3.30;99.90;;;;;;5081800;28;20030;-53
2024/01/05 08:19:38;;;;;;;165.77;67.95;;;3.30;99.90;;;;;;5092653;28;20374;-53
2024/01/05 08:22:03;;;;;;;126.28;56.60;;;3.20;99.90;;;;;;5089473;28;20052;-53
2024/01/05 08:24:29;;;;;;;139.18;62.13;;;3.30;99.90;;;;;;5084072;28;20116;-53
2024/01/05 08:26:55;;;;;;;148.93;63.75;;;3.30;99.90;;;;;;5075602;28;20033;-53
2024/01/05 08:29:22;;;;;;;146.95;65.15;;;3.40;99.90;;;;;;5086747;28;20451;-53
2024/01/05 08:31:49;;;;;;;144.63;70.55;;;3.30;99.90;;;;;;5073625;28;20183;-52
2024/01/05 08:34:15;;;;;;;155.10;67.05;;;3.20;99.90;;;;;;5089084;28;20028;-53
2024/01/05 08:36:41;;;;;;;160.68;69.65;;;3.30;99.90;;;;;;5084544;28;20462;-53
2024/01/05 08:39:07;;;;;;;163.38;70.93;;;3.50;99.90;;;;;;5094505;28;20098;-53
2024/01/05 08:41:33;;;;;;;161.07;67.95;;;3.50;99.90;;;;;;5081674;28;20032;-53
2024/01/05 08:43:59;;;;;;;155.23;70.55;;;3.60;99.90;;;;;;5092393;28;20089;-53
2024/01/05 08:46:28;;;;;;;146.50;68.53;;;3.70;99.90;;;;;;5084206;28;20036;-53
2024/01/05 08:48:54;;;;;;;164.98;71.03;;;3.90;99.90;;;;;;5093909;28;20114;-53
2024/01/05 08:51:20;;;;;;;143.55;66.63;;;4.00;99.90;;;;;;5094090;28;20035;-53
2024/01/05 08:53:46;;;;;;;180.18;76.00;;;4.20;99.90;;;;;;5089086;28;20020;-53
2024/01/05 08:56:12;;;;;;;173.20;73.75;;;4.50;99.90;;;;;;5095760;28;20401;-53
2024/01/05 08:58:40;;;;;;;156.65;71.65;;;4.70;99.90;;;;;;5095756;28;20058;-53
2024/01/05 09:01:06;;;;;;;148.18;71.82;;;4.90;99.90;;;;;;5095662;28;20028;-53
2024/01/05 09:03:32;;;;;;;148.02;73.25;;;4.90;99.90;;;;;;5096011;28;20034;-53
2024/01/05 09:05:58;;;;;;;152.40;71.30;;;5.10;99.90;;;;;;5095817;28;20485;-53
2024/01/05 09:08:25;;;;;;;150.77;70.97;;;5.30;99.90;;;;;;5095043;28;20085;-53
2024/01/05 09:10:50;;;;;;;160.80;70.45;;;5.40;99.90;;;;;;5095747;28;20032;-53
2024/01/05 09:13:16;;;;;;;171.88;73.55;;;5.80;99.90;;;;;;5095728;28;20092;-53
2024/01/05 09:15:43;;;;;;;173.15;82.53;;;6.20;99.90;;;;;;5094294;28;20070;-53
2024/01/05 09:18:09;;;;;;;160.43;85.03;;;6.60;99.90;;;;;;5086637;28;20074;-53
2024/01/05 09:20:36;;;;;;;158.23;78.40;;;6.80;99.90;;;;;;5093234;28;20074;-53
2024/01/05 09:23:02;;;;;;;174.48;82.97;;;7.10;99.90;;;;;;5086428;28;20428;-53
2024/01/05 09:25:29;;;;;;;175.90;85.13;;;7.30;99.90;;;;;;5092528;28;20031;-53
2024/01/05 09:27:55;;;;;;;188.07;88.07;;;7.70;99.90;;;;;;5088726;28;20044;-53
2024/01/05 09:30:21;;;;;;;180.23;86.85;;;8.10;99.90;;;;;;5080972;28;20470;-53
2024/01/05 09:32:46;;;;;;;200.75;88.60;;;8.30;99.00;;;;;;5075097;28;20024;-53
2024/01/05 09:35:12;;;;;;;173.93;89.78;;;8.50;98.40;;;;;;5087520;28;20024;-53
2024/01/05 09:37:38;;;;;;;198.23;96.07;;;8.60;97.50;;;;;;5095312;28;20247;-53
2024/01/05 09:40:05;;;;;;;194.27;96.82;;;9.00;97.60;;;;;;5094763;28;20115;-53
2024/01/05 09:42:31;;;;;;;197.05;95.50;;;9.10;97.00;;;;;;5095145;28;20442;-53
2024/01/05 09:44:58;;;;;;;193.00;96.97;;;9.20;97.50;;;;;;5094728;28;20109;-53
2024/01/05 09:47:24;;;;;;;195.82;100.10;;;9.30;96.50;;;;;;5095283;28;20466;-53
2024/01/05 09:49:51;;;;;;;180.93;92.47;;;9.10;96.30;;;;;;5094868;28;20028;-53
2024/01/05 09:52:19;;;;;;;168.20;83.72;;;8.70;96.70;;;;;;5088239;28;20081;-53
2024/01/05 09:54:46;;;;;;;173.85;87.55;;;9.20;97.20;;;;;;5076973;28;20035;-53
2024/01/05 09:57:16;;;;;;;201.18;95.13;;;9.60;95.80;;;;;;5086119;28;20038;-53
2024/01/05 09:59:45;;;;;;;191.48;92.15;;;9.50;94.30;;;;;;5088715;28;20489;-53
2024/01/05 10:02:16;;;;;;;181.77;85.60;;;10.00;95.00;;;;;;5094937;28;20043;-53
2024/01/05 10:04:42;;;;;;;178.88;88.95;;;9.90;93.30;;;;;;5089196;28;20028;-54
2024/01/05 10:07:08;;;;;;;191.65;97.03;;;10.20;93.50;;;;;;5098436;28;20035;-53
2024/01/05 10:09:49;;;;;;;194.57;102.75;;;10.70;92.50;;;;;;5099155;28;20047;-53
2024/01/05 10:12:15;;;;;;;162.50;80.97;;;10.50;92.80;;;;;;5098504;28;20451;-53
2024/01/05 10:14:41;;;;;;;165.75;85.90;;;10.50;91.80;;;;;;5098392;28;20013;-53
2024/01/05 10:17:08;;;;;;;191.18;96.05;;;11.00;91.90;;;;;;5096966;28;20457;-53
2024/01/05 10:19:35;;;;;;;188.18;94.53;;;10.90;91.30;;;;;;5098501;28;20077;-53
2024/01/05 10:22:09;;;;;;;179.90;97.07;;;11.10;91.00;;;;;;5098381;28;20028;-53
2024/01/05 10:24:35;;;;;;;196.95;96.70;;;10.10;92.40;;;;;;5098603;28;20095;-53
2024/01/05 10:27:05;;;;;;;185.05;94.47;;;10.70;92.20;;;;;;5098465;28;20056;-53
2024/01/05 10:29:32;;;;;;;205.65;97.22;;;11.30;90.80;;;;;;5096906;28;20028;-53
2024/01/05 10:32:13;;;;;;;198.82;101.85;;;11.50;91.90;;;;;;5091289;28;20043;-53
2024/01/05 10:34:46;;;;;;;214.90;104.63;;;11.30;90.80;;;;;;5078293;28;20040;-53
2024/01/05 10:37:14;;;;;;;187.75;100.05;;;11.80;90.60;;;;;;5077713;28;20242;-53
2024/01/05 10:39:51;;;;;;;203.27;103.18;;;11.80;91.00;;;;;;5081547;28;20035;-53
2024/01/05 10:42:24;;;;;;;214.25;105.70;;;12.20;90.40;;;;;;5097932;28;20123;-54
2024/01/05 10:44:52;;;;;;;201.85;105.15;;;11.90;88.70;;;;;;5097993;28;20055;-53
2024/01/05 10:47:20;;;;;;;221.18;112.55;;;11.90;90.40;;;;;;5098144;28;20032;-53
2024/01/05 10:49:49;;;;;;;223.30;113.05;;;11.90;87.40;;;;;;5093820;28;20024;-53
2024/01/05 10:52:20;;;;;;;267.27;123.75;;;11.90;88.40;;;;;;5095831;28;20028;-53
2024/01/05 10:54:47;;;;;;;362.75;146.90;;;11.70;89.50;;;;;;5098128;28;20412;-53
2024/01/05 10:57:15;;;;;;;326.45;144.93;;;11.70;90.40;;;;;;5097154;28;20111;-53
2024/01/05 10:59:52;;;;;;;238.13;113.78;;;11.60;89.90;;;;;;5096876;28;20022;-53
2024/01/05 11:02:28;;;;;;;235.32;114.45;;;11.50;89.30;;;;;;5097966;28;20024;-53
2024/01/05 11:05:10;;;;;;;187.48;100.80;;;11.40;90.40;;;;;;5096546;28;20032;-54
2024/01/05 11:07:38;;;;;;;184.65;94.55;;;11.30;90.50;;;;;;5092509;28;20052;-53
2024/01/05 11:10:24;;;;;;;170.32;89.97;;;11.00;91.60;;;;;;5095180;28;20020;-53
2024/01/05 11:12:55;;;;;;;156.98;89.82;;;11.10;91.80;;;;;;5095628;28;20035;-53
2024/01/05 11:15:34;;;;;;;176.85;92.47;;;11.40;91.60;;;;;;5090848;28;20093;-53
2024/01/05 11:18:04;;;;;;;169.55;91.55;;;11.50;90.60;;;;;;5097275;28;20043;-53
2024/01/05 11:21:08;;;;;;;180.02;90.40;;;11.60;89.80;;;;;;5097405;28;20082;-53
2024/01/05 11:23:35;;;;;;;202.82;100.78;;;11.60;90.40;;;;;;5065719;28;20093;-53
2024/01/05 11:26:01;;;;;;;165.57;92.72;;;11.60;91.00;;;;;;5077108;28;20020;-54
2024/01/05 11:28:41;;;;;;;197.43;102.35;;;11.60;90.60;;;;;;5090614;28;20415;-53
2024/01/05 11:31:07;;;;;;;191.43;97.15;;;11.70;90.90;;;;;;5097382;28;20109;-53
2024/01/05 11:34:16;;;;;;;181.60;95.32;;;11.70;90.50;;;;;;5095219;28;20028;-53
2024/01/05 11:37:04;;;;;;;159.38;92.03;;;11.70;89.60;;;;;;5093424;28;20443;-53
2024/01/05 11:39:53;;;;;;;183.10;96.03;;;11.60;90.50;;;;;;5097173;28;20553;-53
2024/01/05 11:42:25;;;;;;;165.07;93.15;;;11.20;91.90;;;;;;5097509;28;20042;-54
2024/01/05 11:44:51;;;;;;;184.27;94.22;;;11.30;91.90;;;;;;5096962;28;20400;-53
2024/01/05 11:47:44;;;;;;;187.73;97.20;;;11.30;91.50;;;;;;5096554;28;20043;-54
2024/01/05 11:50:26;;;;;;;176.48;96.32;;;11.00;91.50;;;;;;5097309;28;20034;-53
2024/01/05 11:53:10;;;;;;;171.00;96.95;;;10.90;91.30;;;;;;5095539;28;20035;-53
2024/01/05 11:55:40;;;;;;;180.43;98.35;;;10.90;91.80;;;;;;5096698;28;20477;-53
2024/01/05 11:58:13;;;;;;;165.10;89.85;;;11.10;91.80;;;;;;5096177;28;20035;-53
2024/01/05 12:00:44;;;;;;;167.05;90.25;;;10.90;92.30;;;;;;5096946;28;20081;-54
2024/01/05 12:03:10;;;;;;;155.15;85.05;;;10.90;92.60;;;;;;5096921;28;20554;-54
2024/01/05 12:05:39;;;;;;;164.63;85.57;;;10.90;92.60;;;;;;5096568;28;20016;-54
2024/01/05 12:08:08;;;;;;;166.45;89.40;;;10.90;92.60;;;;;;5096133;28;20032;-54
2024/01/05 12:10:34;;;;;;;177.05;91.53;;;10.80;92.70;;;;;;5096444;28;20028;-54
2024/01/05 12:13:00;;;;;;;177.80;93.03;;;10.80;92.90;;;;;;5096660;28;20089;-53
2024/01/05 12:15:27;;;;;;;197.38;101.65;;;10.80;92.80;;;;;;5096605;28;20032;-54
2024/01/05 12:18:11;;;;;;;188.77;98.28;;;10.60;92.90;;;;;;5096124;28;20409;-54
2024/01/05 12:20:37;;;;;;;183.90;96.28;;;10.50;93.20;;;;;;5096298;28;20036;-53
2024/01/05 12:23:04;;;;;;;183.80;98.53;;;10.40;93.50;;;;;;5096345;28;20028;-54
2024/01/05 12:25:31;;;;;;;176.32;98.03;;;10.30;93.60;;;;;;5095468;28;20028;-54